sensor_id;sensor_type;location;lat;lon;timestamp;pressure;altitude;pressure_sealevel;temperature;humidity
78459;BME280;67753;42.684;23.330;2023-05-07T00:01:06;95201.94;;;13.12;83.48
78459;BME280;67753;42.684;23.330;2023-05-07T00:03:08;95203.72;;;13.27;82.68
78459;BME280;67753;42.684;23.330;2023-05-07T00:05:10;95205.13;;;13.21;82.80
78459;BME280;67753;42.684;23.330;2023-05-07T00:07:12;95211.59;;;13.13;83.38
78459;BME280;67753;42.684;23.330;2023-05-07T00:09:14;95204.34;;;13.20;82.91
78459;BME280;67753;42.684;23.330;2023-05-07T00:11:18;95206.75;;;13.25;82.77
78459;BME280;67753;42.684;23.330;2023-05-07T00:13:20;95206.41;;;13.00;83.63
78459;BME280;67753;42.684;23.330;2023-05-07T00:15:22;95203.72;;;13.27;82.62
78459;BME280;67753;42.684;23.330;2023-05-07T00:17:24;95205.78;;;13.11;83.21
78459;BME280;67753;42.684;23.330;2023-05-07T00:19:26;95192.81;;;13.20;82.91
78459;BME280;67753;42.684;23.330;2023-05-07T00:21:29;95190.66;;;13.29;82.47
78459;BME280;67753;42.684;23.330;2023-05-07T00:23:31;95188.97;;;13.21;83.14
78459;BME280;67753;42.684;23.330;2023-05-07T00:25:33;95187.53;;;13.23;82.93
78459;BME280;67753;42.684;23.330;2023-05-07T00:27:36;95194.38;;;13.21;83.16
78459;BME280;67753;42.684;23.330;2023-05-07T00:29:40;95192.13;;;13.23;83.10
78459;BME280;67753;42.684;23.330;2023-05-07T00:31:42;95191.50;;;13.07;84.03
78459;BME280;67753;42.684;23.330;2023-05-07T00:33:44;95185.72;;;13.04;84.34
78459;BME280;67753;42.684;23.330;2023-05-07T00:35:46;95190.22;;;12.97;84.54
78459;BME280;67753;42.684;23.330;2023-05-07T00:37:48;95195.41;;;12.83;85.55
78459;BME280;67753;42.684;23.330;2023-05-07T00:39:50;95192.25;;;12.77;85.60
78459;BME280;67753;42.684;23.330;2023-05-07T00:41:51;95199.69;;;12.87;85.07
78459;BME280;67753;42.684;23.330;2023-05-07T00:43:54;95192.97;;;12.74;85.51
78459;BME280;67753;42.684;23.330;2023-05-07T00:45:57;95199.69;;;12.61;86.07
78459;BME280;67753;42.684;23.330;2023-05-07T00:48:00;95201.34;;;12.69;85.39
78459;BME280;67753;42.684;23.330;2023-05-07T00:50:02;95202.94;;;12.73;85.57
78459;BME280;67753;42.684;23.330;2023-05-07T00:52:06;95197.53;;;12.70;85.61
78459;BME280;67753;42.684;23.330;2023-05-07T00:54:09;95207.88;;;12.68;85.60
78459;BME280;67753;42.684;23.330;2023-05-07T00:56:14;95198.41;;;12.77;85.04
78459;BME280;67753;42.684;23.330;2023-05-07T00:58:16;95199.75;;;12.64;85.39
78459;BME280;67753;42.684;23.330;2023-05-07T01:00:19;95197.31;;;12.56;86.40
78459;BME280;67753;42.684;23.330;2023-05-07T01:02:21;95199.06;;;12.44;86.19
78459;BME280;67753;42.684;23.330;2023-05-07T01:04:23;95206.81;;;12.49;86.73
78459;BME280;67753;42.684;23.330;2023-05-07T01:06:27;95206.47;;;12.51;86.71
78459;BME280;67753;42.684;23.330;2023-05-07T01:08:30;95204.53;;;12.25;87.83
78459;BME280;67753;42.684;23.330;2023-05-07T01:10:32;95208.38;;;12.27;87.78
78459;BME280;67753;42.684;23.330;2023-05-07T01:12:35;95206.19;;;12.33;87.71
78459;BME280;67753;42.684;23.330;2023-05-07T01:14:41;95203.69;;;12.21;87.58
78459;BME280;67753;42.684;23.330;2023-05-07T01:16:44;95205.22;;;12.22;87.56
78459;BME280;67753;42.684;23.330;2023-05-07T01:18:46;95206.19;;;12.33;87.07
78459;BME280;67753;42.684;23.330;2023-05-07T01:20:48;95198.44;;;12.28;87.36
78459;BME280;67753;42.684;23.330;2023-05-07T01:22:53;95203.56;;;12.14;88.13
78459;BME280;67753;42.684;23.330;2023-05-07T01:24:55;95199.16;;;12.25;87.77
78459;BME280;67753;42.684;23.330;2023-05-07T01:26:57;95202.91;;;12.20;87.90
78459;BME280;67753;42.684;23.330;2023-05-07T01:28:59;95202.84;;;12.17;88.08
78459;BME280;67753;42.684;23.330;2023-05-07T01:31:03;95198.84;;;12.07;88.71
78459;BME280;67753;42.684;23.330;2023-05-07T01:33:09;95201.00;;;12.21;87.74
78459;BME280;67753;42.684;23.330;2023-05-07T01:35:17;95198.91;;;12.11;88.82
78459;BME280;67753;42.684;23.330;2023-05-07T01:37:20;95194.25;;;12.08;89.08
78459;BME280;67753;42.684;23.330;2023-05-07T01:39:24;95189.41;;;11.94;90.11
78459;BME280;67753;42.684;23.330;2023-05-07T01:41:27;95189.94;;;12.03;89.50
78459;BME280;67753;42.684;23.330;2023-05-07T01:43:29;95187.78;;;11.89;90.54
78459;BME280;67753;42.684;23.330;2023-05-07T01:45:32;95188.16;;;11.88;90.19
78459;BME280;67753;42.684;23.330;2023-05-07T01:47:36;95183.75;;;11.99;89.75
78459;BME280;67753;42.684;23.330;2023-05-07T01:49:38;95180.03;;;11.84;89.96
78459;BME280;67753;42.684;23.330;2023-05-07T01:51:40;95171.97;;;11.84;90.35
78459;BME280;67753;42.684;23.330;2023-05-07T01:53:42;95178.75;;;11.97;89.59
78459;BME280;67753;42.684;23.330;2023-05-07T01:55:47;95166.22;;;11.82;89.93
78459;BME280;67753;42.684;23.330;2023-05-07T01:57:49;95167.59;;;11.76;90.22
78459;BME280;67753;42.684;23.330;2023-05-07T01:59:51;95160.97;;;11.70;90.08
78459;BME280;67753;42.684;23.330;2023-05-07T02:01:53;95164.06;;;11.91;89.22
78459;BME280;67753;42.684;23.330;2023-05-07T02:03:55;95170.97;;;11.92;88.46
78459;BME280;67753;42.684;23.330;2023-05-07T02:05:57;95157.84;;;11.87;89.10
78459;BME280;67753;42.684;23.330;2023-05-07T02:07:59;95167.09;;;11.90;88.73
78459;BME280;67753;42.684;23.330;2023-05-07T02:10:00;95156.16;;;11.79;89.20
78459;BME280;67753;42.684;23.330;2023-05-07T02:12:04;95156.84;;;11.76;89.38
78459;BME280;67753;42.684;23.330;2023-05-07T02:14:06;95143.50;;;11.37;91.04
78459;BME280;67753;42.684;23.330;2023-05-07T02:16:08;95148.59;;;11.42;91.24
78459;BME280;67753;42.684;23.330;2023-05-07T02:18:11;95152.50;;;11.68;90.16
78459;BME280;67753;42.684;23.330;2023-05-07T02:20:12;95139.94;;;11.72;89.44
78459;BME280;67753;42.684;23.330;2023-05-07T02:22:14;95148.28;;;11.67;90.13
78459;BME280;67753;42.684;23.330;2023-05-07T02:24:16;95144.09;;;11.69;89.91
78459;BME280;67753;42.684;23.330;2023-05-07T02:26:19;95142.63;;;11.52;90.72
78459;BME280;67753;42.684;23.330;2023-05-07T02:28:23;95140.38;;;11.55;90.11
78459;BME280;67753;42.684;23.330;2023-05-07T02:30:25;95145.59;;;11.67;90.07
78459;BME280;67753;42.684;23.330;2023-05-07T02:32:27;95146.78;;;11.69;90.20
78459;BME280;67753;42.684;23.330;2023-05-07T02:34:29;95150.09;;;11.82;88.83
78459;BME280;67753;42.684;23.330;2023-05-07T02:36:31;95149.94;;;11.75;89.72
78459;BME280;67753;42.684;23.330;2023-05-07T02:38:33;95139.69;;;11.58;90.93
78459;BME280;67753;42.684;23.330;2023-05-07T02:40:34;95147.53;;;11.70;90.67
78459;BME280;67753;42.684;23.330;2023-05-07T02:42:39;95138.50;;;11.78;89.86
78459;BME280;67753;42.684;23.330;2023-05-07T02:44:42;95146.28;;;11.83;89.31
78459;BME280;67753;42.684;23.330;2023-05-07T02:46:44;95139.84;;;11.26;92.22
78459;BME280;67753;42.684;23.330;2023-05-07T02:48:46;95142.91;;;11.67;91.00
78459;BME280;67753;42.684;23.330;2023-05-07T02:50:47;95149.91;;;11.52;92.17
78459;BME280;67753;42.684;23.330;2023-05-07T02:52:49;95152.22;;;11.73;90.86
78459;BME280;67753;42.684;23.330;2023-05-07T02:54:51;95155.78;;;11.58;92.03
78459;BME280;67753;42.684;23.330;2023-05-07T02:56:55;95148.91;;;11.60;92.06
78459;BME280;67753;42.684;23.330;2023-05-07T02:58:57;95165.34;;;11.78;90.87
78459;BME280;67753;42.684;23.330;2023-05-07T03:01:01;95167.53;;;11.72;90.60
78459;BME280;67753;42.684;23.330;2023-05-07T03:03:03;95166.97;;;11.83;90.11
78459;BME280;67753;42.684;23.330;2023-05-07T03:05:06;95167.75;;;11.83;90.54
78459;BME280;67753;42.684;23.330;2023-05-07T03:07:08;95167.66;;;11.80;90.77
78459;BME280;67753;42.684;23.330;2023-05-07T03:09:10;95171.41;;;11.75;90.38
78459;BME280;67753;42.684;23.330;2023-05-07T03:11:12;95178.63;;;11.90;90.18
78459;BME280;67753;42.684;23.330;2023-05-07T03:13:14;95174.81;;;11.91;89.89
78459;BME280;67753;42.684;23.330;2023-05-07T03:15:16;95178.50;;;11.83;90.04
78459;BME280;67753;42.684;23.330;2023-05-07T03:17:20;95173.13;;;11.83;90.19
78459;BME280;67753;42.684;23.330;2023-05-07T03:19:22;95173.25;;;11.90;89.65
78459;BME280;67753;42.684;23.330;2023-05-07T03:21:24;95174.66;;;11.84;90.08
78459;BME280;67753;42.684;23.330;2023-05-07T03:23:26;95181.59;;;11.85;90.05
78459;BME280;67753;42.684;23.330;2023-05-07T03:25:29;95182.31;;;11.82;90.27
78459;BME280;67753;42.684;23.330;2023-05-07T03:27:31;95181.31;;;11.90;89.98
78459;BME280;67753;42.684;23.330;2023-05-07T03:29:34;95179.41;;;11.91;90.03
78459;BME280;67753;42.684;23.330;2023-05-07T03:31:36;95181.03;;;11.95;89.74
78459;BME280;67753;42.684;23.330;2023-05-07T03:33:50;95176.94;;;11.82;90.47
78459;BME280;67753;42.684;23.330;2023-05-07T03:35:52;95183.56;;;11.88;90.48
78459;BME280;67753;42.684;23.330;2023-05-07T03:37:54;95184.00;;;11.90;90.49
78459;BME280;67753;42.684;23.330;2023-05-07T03:39:56;95193.16;;;11.89;90.68
78459;BME280;67753;42.684;23.330;2023-05-07T03:41:58;95195.53;;;11.91;90.35
78459;BME280;67753;42.684;23.330;2023-05-07T03:44:01;95193.25;;;11.73;90.98
78459;BME280;67753;42.684;23.330;2023-05-07T03:46:03;95198.53;;;11.89;90.54
78459;BME280;67753;42.684;23.330;2023-05-07T03:48:04;95197.84;;;11.92;90.30
78459;BME280;67753;42.684;23.330;2023-05-07T03:50:09;95196.16;;;11.84;91.05
78459;BME280;67753;42.684;23.330;2023-05-07T03:52:12;95197.84;;;11.92;90.63
78459;BME280;67753;42.684;23.330;2023-05-07T03:54:14;95194.84;;;11.97;90.39
78459;BME280;67753;42.684;23.330;2023-05-07T03:56:16;95198.78;;;12.03;89.96
78459;BME280;67753;42.684;23.330;2023-05-07T03:58:18;95198.53;;;11.89;90.47
78459;BME280;67753;42.684;23.330;2023-05-07T04:00:20;95197.00;;;11.88;90.71
78459;BME280;67753;42.684;23.330;2023-05-07T04:02:23;95212.13;;;11.77;90.60
78459;BME280;67753;42.684;23.330;2023-05-07T04:04:25;95203.91;;;11.70;92.00
78459;BME280;67753;42.684;23.330;2023-05-07T04:06:28;95204.22;;;11.65;92.12
78459;BME280;67753;42.684;23.330;2023-05-07T04:08:30;95213.81;;;11.66;92.29
78459;BME280;67753;42.684;23.330;2023-05-07T04:10:32;95219.97;;;11.86;91.51
78459;BME280;67753;42.684;23.330;2023-05-07T04:12:34;95230.06;;;11.73;91.90
78459;BME280;67753;42.684;23.330;2023-05-07T04:14:35;95220.91;;;11.55;92.81
78459;BME280;67753;42.684;23.330;2023-05-07T04:16:38;95226.38;;;11.62;92.79
78459;BME280;67753;42.684;23.330;2023-05-07T04:18:41;95233.34;;;11.43;93.15
78459;BME280;67753;42.684;23.330;2023-05-07T04:20:42;95232.03;;;11.37;93.54
78459;BME280;67753;42.684;23.330;2023-05-07T04:22:46;95238.06;;;11.31;93.41
78459;BME280;67753;42.684;23.330;2023-05-07T04:24:49;95241.78;;;11.26;94.02
78459;BME280;67753;42.684;23.330;2023-05-07T04:26:50;95238.25;;;11.41;93.49
78459;BME280;67753;42.684;23.330;2023-05-07T04:28:53;95240.53;;;11.59;92.43
78459;BME280;67753;42.684;23.330;2023-05-07T04:30:55;95245.03;;;11.74;91.37
78459;BME280;67753;42.684;23.330;2023-05-07T04:32:57;95248.41;;;11.71;91.35
78459;BME280;67753;42.684;23.330;2023-05-07T04:34:59;95256.78;;;11.85;90.73
78459;BME280;67753;42.684;23.330;2023-05-07T04:37:00;95249.28;;;11.56;91.21
78459;BME280;67753;42.684;23.330;2023-05-07T04:39:04;95259.03;;;11.44;92.26
78459;BME280;67753;42.684;23.330;2023-05-07T04:41:09;95256.19;;;11.57;93.16
78459;BME280;67753;42.684;23.330;2023-05-07T04:43:11;95259.44;;;11.85;91.06
78459;BME280;67753;42.684;23.330;2023-05-07T04:45:13;95265.38;;;11.94;90.41
78459;BME280;67753;42.684;23.330;2023-05-07T04:47:15;95258.09;;;11.75;90.79
78459;BME280;67753;42.684;23.330;2023-05-07T04:49:17;95253.81;;;11.90;90.80
78459;BME280;67753;42.684;23.330;2023-05-07T04:51:19;95252.38;;;11.96;90.57
78459;BME280;67753;42.684;23.330;2023-05-07T04:53:21;95250.66;;;12.08;89.97
78459;BME280;67753;42.684;23.330;2023-05-07T04:55:24;95259.44;;;12.05;90.03
78459;BME280;67753;42.684;23.330;2023-05-07T04:57:26;95261.09;;;12.13;89.45
78459;BME280;67753;42.684;23.330;2023-05-07T04:59:28;95259.03;;;12.25;89.01
78459;BME280;67753;42.684;23.330;2023-05-07T05:01:30;95266.13;;;12.37;88.17
78459;BME280;67753;42.684;23.330;2023-05-07T05:03:32;95260.50;;;12.23;88.01
78459;BME280;67753;42.684;23.330;2023-05-07T05:05:35;95264.72;;;12.43;87.66
78459;BME280;67753;42.684;23.330;2023-05-07T05:07:37;95257.56;;;12.28;88.61
78459;BME280;67753;42.684;23.330;2023-05-07T05:09:39;95254.81;;;12.47;87.96
78459;BME280;67753;42.684;23.330;2023-05-07T05:11:43;95261.81;;;12.56;87.51
78459;BME280;67753;42.684;23.330;2023-05-07T05:13:44;95258.06;;;12.60;87.18
78459;BME280;67753;42.684;23.330;2023-05-07T05:15:48;95254.28;;;12.65;86.78
78459;BME280;67753;42.684;23.330;2023-05-07T05:17:50;95248.81;;;12.58;87.45
78459;BME280;67753;42.684;23.330;2023-05-07T05:19:53;95256.28;;;12.68;87.42
78459;BME280;67753;42.684;23.330;2023-05-07T05:21:54;95261.03;;;12.78;86.65
78459;BME280;67753;42.684;23.330;2023-05-07T05:23:56;95256.84;;;12.81;86.71
78459;BME280;67753;42.684;23.330;2023-05-07T05:25:58;95260.09;;;12.93;86.02
78459;BME280;67753;42.684;23.330;2023-05-07T05:28:02;95253.44;;;12.61;87.10
78459;BME280;67753;42.684;23.330;2023-05-07T05:30:05;95254.38;;;12.95;86.83
78459;BME280;67753;42.684;23.330;2023-05-07T05:32:07;95260.28;;;13.08;86.27
78459;BME280;67753;42.684;23.330;2023-05-07T05:34:09;95267.34;;;13.16;85.92
78459;BME280;67753;42.684;23.330;2023-05-07T05:36:13;95260.56;;;13.25;85.73
78459;BME280;67753;42.684;23.330;2023-05-07T05:38:15;95273.78;;;13.34;85.71
78459;BME280;67753;42.684;23.330;2023-05-07T05:40:17;95264.56;;;13.35;85.47
78459;BME280;67753;42.684;23.330;2023-05-07T05:42:18;95267.09;;;13.24;86.76
78459;BME280;67753;42.684;23.330;2023-05-07T05:44:22;95272.53;;;13.28;85.87
78459;BME280;67753;42.684;23.330;2023-05-07T05:46:23;95270.16;;;13.23;87.06
78459;BME280;67753;42.684;23.330;2023-05-07T05:48:25;95263.50;;;13.43;85.64
78459;BME280;67753;42.684;23.330;2023-05-07T05:50:27;95269.38;;;13.52;85.57
78459;BME280;67753;42.684;23.330;2023-05-07T05:52:29;95264.06;;;13.60;84.62
78459;BME280;67753;42.684;23.330;2023-05-07T05:54:33;95259.16;;;13.65;84.27
78459;BME280;67753;42.684;23.330;2023-05-07T05:56:35;95265.72;;;13.68;84.68
78459;BME280;67753;42.684;23.330;2023-05-07T05:58:37;95262.38;;;13.78;84.54
78459;BME280;67753;42.684;23.330;2023-05-07T06:00:41;95269.34;;;13.82;84.32
78459;BME280;67753;42.684;23.330;2023-05-07T06:02:43;95266.03;;;13.93;83.72
78459;BME280;67753;42.684;23.330;2023-05-07T06:04:46;95267.63;;;13.97;83.65
78459;BME280;67753;42.684;23.330;2023-05-07T06:06:48;95264.09;;;13.93;84.02
78459;BME280;67753;42.684;23.330;2023-05-07T06:08:50;95276.91;;;14.03;83.80
78459;BME280;67753;42.684;23.330;2023-05-07T06:10:52;95270.03;;;14.10;83.83
78459;BME280;67753;42.684;23.330;2023-05-07T06:12:54;95263.78;;;14.02;84.35
78459;BME280;67753;42.684;23.330;2023-05-07T06:14:55;95271.53;;;14.03;83.94
78459;BME280;67753;42.684;23.330;2023-05-07T06:18:36;95270.22;;;14.27;82.65
78459;BME280;67753;42.684;23.330;2023-05-07T06:20:38;95266.88;;;14.41;82.44
78459;BME280;67753;42.684;23.330;2023-05-07T06:22:40;95271.16;;;14.46;82.11
78459;BME280;67753;42.684;23.330;2023-05-07T06:24:42;95263.84;;;14.46;82.72
78459;BME280;67753;42.684;23.330;2023-05-07T06:26:45;95262.38;;;14.52;83.22
78459;BME280;67753;42.684;23.330;2023-05-07T06:28:58;95264.41;;;14.66;82.54
78459;BME280;67753;42.684;23.330;2023-05-07T06:31:11;95256.75;;;14.72;81.41
78459;BME280;67753;42.684;23.330;2023-05-07T06:33:13;95258.31;;;14.76;81.71
78459;BME280;67753;42.684;23.330;2023-05-07T06:35:16;95257.63;;;14.83;81.13
78459;BME280;67753;42.684;23.330;2023-05-07T06:37:18;95257.22;;;14.85;80.89
78459;BME280;67753;42.684;23.330;2023-05-07T06:39:20;95258.47;;;14.94;80.38
78459;BME280;67753;42.684;23.330;2023-05-07T06:41:22;95258.47;;;14.94;80.52
78459;BME280;67753;42.684;23.330;2023-05-07T06:43:25;95252.41;;;15.12;80.15
78459;BME280;67753;42.684;23.330;2023-05-07T06:45:27;95249.72;;;15.12;80.28
78459;BME280;67753;42.684;23.330;2023-05-07T06:47:29;95245.44;;;15.07;79.65
78459;BME280;67753;42.684;23.330;2023-05-07T06:49:32;95241.59;;;15.08;79.52
78459;BME280;67753;42.684;23.330;2023-05-07T06:51:35;95234.31;;;15.16;78.91
78459;BME280;67753;42.684;23.330;2023-05-07T06:53:37;95235.91;;;15.27;79.19
78459;BME280;67753;42.684;23.330;2023-05-07T06:55:38;95240.59;;;15.38;77.63
78459;BME280;67753;42.684;23.330;2023-05-07T06:57:41;95231.72;;;15.41;77.37
78459;BME280;67753;42.684;23.330;2023-05-07T06:59:43;95238.34;;;15.54;77.54
78459;BME280;67753;42.684;23.330;2023-05-07T07:01:44;95236.44;;;15.62;75.19
78459;BME280;67753;42.684;23.330;2023-05-07T07:03:46;95238.06;;;15.70;76.01
78459;BME280;67753;42.684;23.330;2023-05-07T07:05:52;95241.16;;;15.72;75.59
78459;BME280;67753;42.684;23.330;2023-05-07T07:08:01;95249.28;;;15.79;73.49
78459;BME280;67753;42.684;23.330;2023-05-07T07:10:04;95250.47;;;15.89;73.83
78459;BME280;67753;42.684;23.330;2023-05-07T07:12:07;95250.44;;;15.78;74.42
78459;BME280;67753;42.684;23.330;2023-05-07T07:14:09;95242.00;;;15.97;73.56
78459;BME280;67753;42.684;23.330;2023-05-07T07:16:11;95246.59;;;15.82;73.93
78459;BME280;67753;42.684;23.330;2023-05-07T07:18:13;95235.06;;;15.96;72.78
78459;BME280;67753;42.684;23.330;2023-05-07T07:20:15;95231.91;;;15.76;72.86
78459;BME280;67753;42.684;23.330;2023-05-07T07:22:17;95239.28;;;15.97;71.79
78459;BME280;67753;42.684;23.330;2023-05-07T07:24:21;95241.22;;;16.04;71.52
78459;BME280;67753;42.684;23.330;2023-05-07T07:26:22;95234.69;;;16.16;71.29
78459;BME280;67753;42.684;23.330;2023-05-07T07:28:24;95230.78;;;15.99;72.24
78459;BME280;67753;42.684;23.330;2023-05-07T07:30:34;95235.06;;;16.18;71.08
78459;BME280;67753;42.684;23.330;2023-05-07T07:32:37;95230.84;;;16.24;70.85
78459;BME280;67753;42.684;23.330;2023-05-07T07:34:39;95229.69;;;16.32;70.60
78459;BME280;67753;42.684;23.330;2023-05-07T07:36:41;95241.31;;;16.47;69.96
78459;BME280;67753;42.684;23.330;2023-05-07T07:38:43;95242.84;;;16.51;69.85
78459;BME280;67753;42.684;23.330;2023-05-07T07:40:47;95247.09;;;16.49;69.26
78459;BME280;67753;42.684;23.330;2023-05-07T07:42:49;95249.41;;;16.50;68.98
78459;BME280;67753;42.684;23.330;2023-05-07T07:44:51;95244.00;;;16.50;69.18
78459;BME280;67753;42.684;23.330;2023-05-07T07:46:55;95247.53;;;16.76;68.84
78459;BME280;67753;42.684;23.330;2023-05-07T07:48:57;95250.63;;;16.78;67.28
78459;BME280;67753;42.684;23.330;2023-05-07T07:51:00;95250.22;;;16.79;67.10
78459;BME280;67753;42.684;23.330;2023-05-07T07:53:01;95258.31;;;17.01;67.35
78459;BME280;67753;42.684;23.330;2023-05-07T07:55:04;95261.41;;;17.14;67.44
78459;BME280;67753;42.684;23.330;2023-05-07T07:57:08;95256.00;;;16.71;68.13
78459;BME280;67753;42.684;23.330;2023-05-07T07:59:10;95259.88;;;17.02;67.46
78459;BME280;67753;42.684;23.330;2023-05-07T08:01:14;95256.00;;;17.14;66.77
78459;BME280;67753;42.684;23.330;2023-05-07T08:03:16;95245.47;;;17.44;66.56
78459;BME280;67753;42.684;23.330;2023-05-07T08:05:20;95254.28;;;17.70;65.46
78459;BME280;67753;42.684;23.330;2023-05-07T08:07:21;95252.72;;;17.69;65.67
78459;BME280;67753;42.684;23.330;2023-05-07T08:09:23;95252.00;;;17.61;65.21
78459;BME280;67753;42.684;23.330;2023-05-07T08:11:25;95251.19;;;17.68;64.32
78459;BME280;67753;42.684;23.330;2023-05-07T08:13:29;95250.31;;;17.92;63.57
78459;BME280;67753;42.684;23.330;2023-05-07T08:15:31;95254.97;;;17.95;63.70
78459;BME280;67753;42.684;23.330;2023-05-07T08:17:33;95247.84;;;18.23;62.38
78459;BME280;67753;42.684;23.330;2023-05-07T08:19:35;95248.31;;;18.10;63.96
78459;BME280;67753;42.684;23.330;2023-05-07T08:21:39;95243.03;;;18.48;63.19
78459;BME280;67753;42.684;23.330;2023-05-07T08:23:41;95246.81;;;18.61;61.29
78459;BME280;67753;42.684;23.330;2023-05-07T08:25:42;95240.72;;;18.43;59.97
78459;BME280;67753;42.684;23.330;2023-05-07T08:27:44;95244.63;;;18.42;60.11
78459;BME280;67753;42.684;23.330;2023-05-07T08:29:48;95239.97;;;18.39;60.09
78459;BME280;67753;42.684;23.330;2023-05-07T08:31:50;95243.78;;;18.52;59.34
78459;BME280;67753;42.684;23.330;2023-05-07T08:33:52;95243.84;;;18.45;59.75
78459;BME280;67753;42.684;23.330;2023-05-07T08:35:53;95235.69;;;18.45;59.25
78459;BME280;67753;42.684;23.330;2023-05-07T08:37:55;95235.25;;;18.54;59.36
78459;BME280;67753;42.684;23.330;2023-05-07T08:39:57;95235.94;;;18.61;58.48
78459;BME280;67753;42.684;23.330;2023-05-07T08:42:00;95236.69;;;18.65;58.98
78459;BME280;67753;42.684;23.330;2023-05-07T08:44:06;95225.00;;;18.76;59.30
78459;BME280;67753;42.684;23.330;2023-05-07T08:46:12;95224.91;;;18.86;58.08
78459;BME280;67753;42.684;23.330;2023-05-07T08:48:21;95231.16;;;19.25;56.92
78459;BME280;67753;42.684;23.330;2023-05-07T08:50:24;95234.31;;;19.20;56.56
78459;BME280;67753;42.684;23.330;2023-05-07T08:52:26;95230.47;;;19.51;59.99
78459;BME280;67753;42.684;23.330;2023-05-07T08:54:29;95229.66;;;19.54;54.34
78459;BME280;67753;42.684;23.330;2023-05-07T08:56:32;95230.69;;;19.68;55.47
78459;BME280;67753;42.684;23.330;2023-05-07T08:58:35;95231.06;;;19.70;54.66
78459;BME280;67753;42.684;23.330;2023-05-07T09:00:38;95222.22;;;19.92;55.04
78459;BME280;67753;42.684;23.330;2023-05-07T09:02:42;95223.94;;;19.79;53.38
78459;BME280;67753;42.684;23.330;2023-05-07T09:04:44;95222.63;;;19.60;53.05
78459;BME280;67753;42.684;23.330;2023-05-07T09:06:45;95218.25;;;19.66;54.23
78459;BME280;67753;42.684;23.330;2023-05-07T09:08:52;95214.97;;;19.82;52.96
78459;BME280;67753;42.684;23.330;2023-05-07T09:10:54;95215.63;;;19.90;52.38
78459;BME280;67753;42.684;23.330;2023-05-07T09:12:56;95213.44;;;20.08;53.25
78459;BME280;67753;42.684;23.330;2023-05-07T09:14:58;95217.41;;;20.04;51.87
78459;BME280;67753;42.684;23.330;2023-05-07T09:17:01;95208.00;;;20.08;51.37
78459;BME280;67753;42.684;23.330;2023-05-07T09:19:04;95209.72;;;20.26;52.16
78459;BME280;67753;42.684;23.330;2023-05-07T09:21:09;95209.78;;;20.49;52.16
78459;BME280;67753;42.684;23.330;2023-05-07T09:23:11;95199.75;;;20.15;51.73
78459;BME280;67753;42.684;23.330;2023-05-07T09:25:13;95204.81;;;20.40;51.00
78459;BME280;67753;42.684;23.330;2023-05-07T09:27:15;95203.75;;;20.61;52.02
78459;BME280;67753;42.684;23.330;2023-05-07T09:29:18;95206.25;;;20.76;51.87
78459;BME280;67753;42.684;23.330;2023-05-07T09:31:20;95196.41;;;20.82;50.08
78459;BME280;67753;42.684;23.330;2023-05-07T09:33:27;95198.22;;;20.88;51.40
78459;BME280;67753;42.684;23.330;2023-05-07T09:35:30;95199.59;;;21.00;49.92
78459;BME280;67753;42.684;23.330;2023-05-07T09:37:32;95197.97;;;21.03;50.32
78459;BME280;67753;42.684;23.330;2023-05-07T09:39:41;95198.81;;;21.00;49.44
78459;BME280;67753;42.684;23.330;2023-05-07T09:41:43;95190.50;;;21.07;49.30
78459;BME280;67753;42.684;23.330;2023-05-07T09:43:45;95192.19;;;21.01;48.89
78459;BME280;67753;42.684;23.330;2023-05-07T09:45:47;95189.56;;;20.93;47.49
78459;BME280;67753;42.684;23.330;2023-05-07T09:47:54;95184.41;;;21.23;47.28
78459;BME280;67753;42.684;23.330;2023-05-07T09:49:56;95186.19;;;21.33;46.52
78459;BME280;67753;42.684;23.330;2023-05-07T09:52:01;95181.00;;;21.38;46.65
78459;BME280;67753;42.684;23.330;2023-05-07T09:54:04;95191.47;;;21.40;46.42
78459;BME280;67753;42.684;23.330;2023-05-07T09:56:07;95187.63;;;21.57;47.26
78459;BME280;67753;42.684;23.330;2023-05-07T09:58:09;95184.06;;;21.60;46.31
78459;BME280;67753;42.684;23.330;2023-05-07T10:00:14;95176.38;;;21.75;46.48
78459;BME280;67753;42.684;23.330;2023-05-07T10:02:19;95186.66;;;21.67;45.46
78459;BME280;67753;42.684;23.330;2023-05-07T10:04:22;95181.69;;;21.62;44.95
78459;BME280;67753;42.684;23.330;2023-05-07T10:06:25;95183.88;;;21.51;44.38
78459;BME280;67753;42.684;23.330;2023-05-07T10:08:28;95178.66;;;21.77;44.63
78459;BME280;67753;42.684;23.330;2023-05-07T10:10:32;95179.88;;;21.92;44.62
78459;BME280;67753;42.684;23.330;2023-05-07T10:12:35;95173.78;;;22.04;44.15
78459;BME280;67753;42.684;23.330;2023-05-07T10:14:39;95177.53;;;22.30;44.64
78459;BME280;67753;42.684;23.330;2023-05-07T10:16:42;95170.84;;;22.48;43.16
78459;BME280;67753;42.684;23.330;2023-05-07T10:18:44;95167.84;;;22.75;43.56
78459;BME280;67753;42.684;23.330;2023-05-07T10:20:47;95169.75;;;22.61;40.67
78459;BME280;67753;42.684;23.330;2023-05-07T10:22:50;95175.72;;;22.73;41.95
78459;BME280;67753;42.684;23.330;2023-05-07T10:24:56;95165.78;;;22.95;41.86
78459;BME280;67753;42.684;23.330;2023-05-07T10:27:03;95166.22;;;22.77;41.22
78459;BME280;67753;42.684;23.330;2023-05-07T10:29:12;95159.34;;;22.73;41.61
78459;BME280;67753;42.684;23.330;2023-05-07T10:31:32;95155.88;;;22.85;42.25
78459;BME280;67753;42.684;23.330;2023-05-07T10:33:39;95154.19;;;22.75;42.41
78459;BME280;67753;42.684;23.330;2023-05-07T10:35:43;95157.97;;;22.48;42.12
78459;BME280;67753;42.684;23.330;2023-05-07T10:37:47;95144.66;;;22.34;41.26
78459;BME280;67753;42.684;23.330;2023-05-07T10:39:49;95146.38;;;22.28;40.99
78459;BME280;67753;42.684;23.330;2023-05-07T10:42:57;95141.81;;;21.68;42.00
78459;BME280;67753;42.684;23.330;2023-05-07T10:45:12;95141.88;;;22.01;41.06